CheckWX is a tool to help pilots better visualize weather data.  It is not intended as a substitute for an official pre-flight weather briefing.

21:03:22 UTC

KGOP METAR
Gatesville Municipal Airport
Gatesville, Texas, USA
Current

8 mins ago

KGOP 232055Z AUTO 13013G23KT 10SM CLR 32/20 A2993 RMK AO2
Observed
May-23 @ 20:55 UTC
Wind
  • 130° at 13 KTS
  • Gusting to 23 KTS
Visibility
10 SM
Flight Rules
VFR
Cloud Levels
  • Clear skies
Temperature
32°C / 90°F
Dewpoint
20°C / 68°F
Heat Index
34°C / 94°F
Humidity
49%
Altimeter
29.93" Hg
Pressure
1013.52 hPa
Previous

28 mins ago

KGOP 232035Z AUTO 14016G22KT 10SM CLR 32/20 A2994 RMK AO2
Observed
May-23 @ 20:35 UTC
Wind
  • 140° at 16 KTS
  • Gusting to 22 KTS
Visibility
10 SM
Flight Rules
VFR
Cloud Levels
  • Clear skies
Temperature
32°C / 90°F
Dewpoint
20°C / 68°F
Heat Index
34°C / 94°F
Humidity
49%
Altimeter
29.94" Hg
Pressure
1013.92 hPa
Previous

2 hours ago

KGOP 231915Z AUTO 13012G20KT 10SM FEW044 SCT050 SCT080 31/20 A2996 RMK AO2
Observed
May-23 @ 19:15 UTC
Wind
  • 130° at 12 KTS
  • Gusting to 20 KTS
Visibility
10 SM
Flight Rules
VFR
Cloud Levels
  • Few at 4,400' AGL
  • Scattered at 5,000' AGL
  • Scattered at 8,000' AGL
Temperature
31°C / 88°F
Dewpoint
20°C / 68°F
Heat Index
33°C / 92°F
Humidity
52%
Altimeter
29.96" Hg
Pressure
1014.52 hPa